EFOU

Oulu Airport

Oulu / Oulunsalo, Finland
METAR EFOU 152150Z AUTO 13004KT CAVOK 11/06 Q1013
Observed Flight Rules
Aug-15 @ 21:50 UTC (37 minutes ago) Visual Flight Rules
Wind Visibility Clouds
130° at 4 knots 10,000+ meters
  • Clear skies
Temperatures Readings
Current 11°C / 52°F
Dewpoint 6°C / 43°F
Humidity 72%
Altimeter 29.91" Hg
Pressure 1013 hPa
Elevation 15
METAR EFOU 152150Z AUTO 13004KT CAVOK 11/06 Q1013
Observed Flight Rules
Aug-15 @ 21:50 UTC
(37 minutes ago)
VFR
Wind Visibility
130° at 4 knots 10,000+ meters
Clouds
  • Clear skies
Temperature Dewpoint
11°C / 52°F 6°C / 43°F
Humidity Altimeter Pressure
72% 29.91" Hg 1013 hPa